Time;durP1;ratioP1;P1;durP2;ratioP2;P2;SDS_P1;SDS_P2;PMS_P1;PMS_P2;Temp;Humidity;BMP_temperature;BMP_pressure;BME280_temperature;BME280_humidity;BME280_pressure;Samples;Min_cycle;Max_cycle;Signal;HPM_P1;HPM_P2
2022/03/03 00:01:38;;;;;;;;;;;1.70;99.90;;;;;;5093403;28;19936;-75
2022/03/03 00:04:04;;;;;;;;;;;1.60;99.90;;;;;;5111380;28;19954;-75
2022/03/03 00:06:29;;;;;;;;;;;1.60;99.90;;;;;;5111533;28;19987;-75
2022/03/03 00:08:55;;;;;;;;;;;1.60;99.90;;;;;;5111472;28;19908;-76
2022/03/03 00:11:21;;;;;;;;;;;1.60;99.90;;;;;;5111430;28;19915;-75
2022/03/03 00:13:47;;;;;;;;;;;1.60;99.90;;;;;;5111448;28;19912;-75
2022/03/03 00:16:13;;;;;;;;;;;1.60;99.90;;;;;;5129140;28;19916;-75
2022/03/03 00:18:39;;;;;;;;;;;1.60;99.90;;;;;;5132492;28;19914;-75
2022/03/03 00:21:05;;;;;;;;;;;1.60;99.90;;;;;;5113707;28;19916;-75
2022/03/03 00:23:31;;;;;;;;;;;1.60;99.90;;;;;;5131898;28;19951;-75
2022/03/03 00:25:56;;;;;;;;;;;1.60;99.90;;;;;;5135854;27;20449;-75
2022/03/03 00:28:22;;;;;;;;;;;1.50;99.90;;;;;;5113465;28;19907;-75
2022/03/03 00:30:48;;;;;;;;;;;1.50;99.90;;;;;;5132782;28;20334;-75
2022/03/03 00:33:13;;;;;;;;;;;1.50;99.90;;;;;;5148003;27;20006;-74
2022/03/03 00:35:39;;;;;;;;;;;1.50;99.90;;;;;;5118659;28;19915;-75
2022/03/03 00:38:05;;;;;;;;;;;1.50;99.90;;;;;;5111318;28;19908;-74
2022/03/03 00:40:30;;;;;;;;;;;1.50;99.90;;;;;;5111183;28;19916;-75
2022/03/03 00:42:56;;;;;;;;;;;1.50;99.90;;;;;;5111185;28;19908;-75
2022/03/03 00:45:22;;;;;;;;;;;1.50;99.90;;;;;;5095263;28;19916;-75
2022/03/03 00:47:48;;;;;;;;;;;1.50;99.90;;;;;;5097361;28;19957;-75
2022/03/03 00:50:14;;;;;;;;;;;1.60;99.90;;;;;;5096493;28;19923;-75
2022/03/03 00:52:40;;;;;;;;;;;1.50;99.90;;;;;;5115100;28;20385;-75
2022/03/03 00:55:06;;;;;;;;;;;1.50;99.90;;;;;;5096718;28;20413;-75
2022/03/03 00:57:32;;;;;;;;;;;1.50;99.90;;;;;;5115154;28;20363;-75
2022/03/03 00:59:57;;;;;;;;;;;1.50;99.90;;;;;;5121837;27;19922;-75
2022/03/03 01:02:23;;;;;;;;;;;1.50;99.90;;;;;;5151657;27;19907;-75
2022/03/03 01:04:49;;;;;;;;;;;1.40;99.90;;;;;;5129590;27;19947;-75
2022/03/03 01:07:15;;;;;;;;;;;1.50;99.90;;;;;;5096967;28;19967;-75
2022/03/03 01:09:40;;;;;;;;;;;1.50;99.90;;;;;;5100881;27;20290;-75
2022/03/03 01:12:06;;;;;;;;;;;1.40;99.90;;;;;;5135779;27;20234;-75
2022/03/03 01:14:32;;;;;;;;;;;1.50;99.90;;;;;;5113500;28;19916;-75
2022/03/03 01:16:57;;;;;;;;;;;1.50;99.90;;;;;;5115244;28;19908;-76
2022/03/03 01:19:23;;;;;;;;;;;1.50;99.90;;;;;;5114672;28;19959;-76
2022/03/03 01:21:49;;;;;;;;;;;1.50;99.90;;;;;;5096709;28;19907;-75
2022/03/03 01:24:15;;;;;;;;;;;1.50;99.90;;;;;;5114272;28;19927;-76
2022/03/03 01:26:40;;;;;;;;;;;1.50;99.90;;;;;;5114543;28;19912;-76
2022/03/03 01:29:06;;;;;;;;;;;1.50;99.90;;;;;;5115162;28;19923;-75
2022/03/03 01:31:35;;;;;;;;;;;1.50;99.90;;;;;;5114658;28;19918;-76
2022/03/03 01:34:00;;;;;;;;;;;1.50;99.90;;;;;;5114450;28;19908;-76
2022/03/03 01:36:26;;;;;;;;;;;1.60;99.90;;;;;;5114009;28;20012;-76
2022/03/03 01:38:52;;;;;;;;;;;1.50;99.90;;;;;;5096143;28;19912;-75
2022/03/03 01:41:18;;;;;;;;;;;1.50;99.90;;;;;;5095659;28;20334;-75
2022/03/03 01:43:43;;;;;;;;;;;1.40;99.90;;;;;;5095794;28;19915;-76
2022/03/03 01:46:09;;;;;;;;;;;1.40;99.90;;;;;;5114414;28;19916;-75
2022/03/03 01:48:35;;;;;;;;;;;1.40;99.90;;;;;;5096157;28;20002;-75
2022/03/03 01:51:01;;;;;;;;;;;1.40;99.90;;;;;;5111194;27;19924;-74
2022/03/03 01:53:29;;;;;;;;;;;1.40;99.90;;;;;;5115855;27;20196;-75
2022/03/03 01:55:55;;;;;;;;;;;1.40;99.90;;;;;;5114782;27;19918;-74
2022/03/03 01:58:21;;;;;;;;;;;1.40;99.90;;;;;;5135351;27;20312;-74
2022/03/03 02:00:49;;;;;;;;;;;1.40;99.90;;;;;;5116289;27;19933;-74
2022/03/03 02:03:14;;;;;;;;;;;1.40;99.90;;;;;;5113817;28;19920;-74
2022/03/03 02:05:40;;;;;;;;;;;1.40;99.90;;;;;;5113869;28;19914;-74
2022/03/03 02:08:06;;;;;;;;;;;1.40;99.90;;;;;;5113570;28;19927;-75
2022/03/03 02:10:32;;;;;;;;;;;1.50;99.90;;;;;;5113689;28;19912;-75
2022/03/03 02:12:57;;;;;;;;;;;1.50;99.90;;;;;;5113747;28;19945;-74
2022/03/03 02:15:23;;;;;;;;;;;1.40;99.90;;;;;;5113567;28;19912;-75
2022/03/03 02:17:49;;;;;;;;;;;1.40;99.90;;;;;;5113571;28;20488;-75
2022/03/03 02:20:21;;;;;;;;;;;1.40;99.90;;;;;;5113484;28;20253;-74
2022/03/03 02:22:48;;;;;;;;;;;1.40;99.90;;;;;;5113130;28;19919;-74
2022/03/03 02:25:14;;;;;;;;;;;1.40;99.90;;;;;;5113507;28;19915;-75
2022/03/03 02:27:40;;;;;;;;;;;1.40;99.90;;;;;;5113396;28;19941;-75
2022/03/03 02:30:06;;;;;;;;;;;1.40;99.90;;;;;;5113285;28;20024;-75
2022/03/03 02:32:31;;;;;;;;;;;1.30;99.90;;;;;;5114015;28;20442;-75
2022/03/03 02:34:57;;;;;;;;;;;1.30;99.90;;;;;;5113052;28;19963;-75
2022/03/03 02:37:24;;;;;;;;;;;1.30;99.90;;;;;;5094814;28;20386;-75
2022/03/03 02:39:49;;;;;;;;;;;1.30;99.90;;;;;;5113180;28;19922;-75
2022/03/03 02:42:15;;;;;;;;;;;1.30;99.90;;;;;;5113255;28;20015;-75
2022/03/03 02:44:40;;;;;;;;;;;1.30;99.90;;;;;;5112793;28;19911;-75
2022/03/03 02:47:06;;;;;;;;;;;1.30;99.90;;;;;;5113051;28;19923;-75
2022/03/03 02:49:32;;;;;;;;;;;1.40;99.90;;;;;;5094733;28;19957;-75
2022/03/03 02:51:58;;;;;;;;;;;1.40;99.90;;;;;;5094371;28;20018;-75
2022/03/03 02:54:24;;;;;;;;;;;1.40;99.90;;;;;;5094336;28;19911;-75
2022/03/03 02:59:34;;;;;;;;;;;1.30;99.90;;;;;;5117094;27;20230;-74
2022/03/03 03:01:59;;;;;;;;;;;1.40;99.90;;;;;;5112412;28;20386;-74
2022/03/03 03:04:25;;;;;;;;;;;1.40;99.90;;;;;;5132177;27;20006;-74
2022/03/03 03:06:51;;;;;;;;;;;1.40;99.90;;;;;;5132715;27;20385;-75
2022/03/03 03:09:16;;;;;;;;;;;1.40;99.90;;;;;;5132909;27;20141;-75
2022/03/03 03:11:42;;;;;;;;;;;1.40;99.90;;;;;;5133325;27;19919;-75
2022/03/03 03:14:08;;;;;;;;;;;1.40;99.90;;;;;;5132938;27;19927;-76
2022/03/03 03:16:33;;;;;;;;;;;1.40;99.90;;;;;;5094151;28;20416;-75
2022/03/03 03:18:59;;;;;;;;;;;1.40;99.90;;;;;;5112539;28;19907;-75
2022/03/03 03:21:25;;;;;;;;;;;1.40;99.90;;;;;;5112474;28;20343;-75
2022/03/03 03:23:50;;;;;;;;;;;1.40;99.90;;;;;;5093848;28;20275;-75
2022/03/03 03:26:16;;;;;;;;;;;1.30;99.90;;;;;;5093883;28;19922;-75
2022/03/03 03:28:42;;;;;;;;;;;1.30;99.90;;;;;;5112231;28;19907;-74
2022/03/03 03:31:07;;;;;;;;;;;1.30;99.90;;;;;;5112851;28;19916;-75
2022/03/03 03:33:33;;;;;;;;;;;1.30;99.90;;;;;;5112222;28;20378;-74
2022/03/03 03:35:59;;;;;;;;;;;1.30;99.90;;;;;;5093683;28;19972;-75
2022/03/03 03:38:25;;;;;;;;;;;1.40;99.90;;;;;;5111799;28;19916;-75
2022/03/03 03:40:50;;;;;;;;;;;1.30;99.90;;;;;;5111905;28;19912;-76
2022/03/03 03:43:16;;;;;;;;;;;1.30;99.90;;;;;;5093496;28;20006;-74
2022/03/03 03:45:42;;;;;;;;;;;1.30;99.90;;;;;;5112101;28;19907;-74
2022/03/03 03:48:07;;;;;;;;;;;1.30;99.90;;;;;;5093612;28;19926;-75
2022/03/03 03:50:33;;;;;;;;;;;1.30;99.90;;;;;;5111762;28;19919;-75
2022/03/03 03:52:59;;;;;;;;;;;1.30;99.90;;;;;;5111752;28;19923;-75
2022/03/03 03:55:24;;;;;;;;;;;1.30;99.90;;;;;;5111315;28;19964;-74
2022/03/03 03:57:50;;;;;;;;;;;1.30;99.90;;;;;;5111718;28;19937;-75
2022/03/03 04:00:16;;;;;;;;;;;1.30;99.90;;;;;;5115800;27;19911;-75
2022/03/03 04:02:42;;;;;;;;;;;1.30;99.90;;;;;;5111201;28;19919;-74
2022/03/03 04:05:08;;;;;;;;;;;1.30;99.90;;;;;;5111687;28;19926;-75
2022/03/03 04:07:34;;;;;;;;;;;1.30;99.90;;;;;;5112203;28;20283;-75
2022/03/03 04:10:00;;;;;;;;;;;1.30;99.90;;;;;;5111370;28;19927;-75
2022/03/03 04:12:25;;;;;;;;;;;1.30;99.90;;;;;;5111365;28;19916;-75
2022/03/03 04:14:52;;;;;;;;;;;1.30;99.90;;;;;;5111221;28;19923;-75
2022/03/03 04:17:18;;;;;;;;;;;1.20;99.90;;;;;;5111533;28;19915;-75
2022/03/03 04:19:43;;;;;;;;;;;1.20;99.90;;;;;;5092279;28;20275;-75
2022/03/03 04:22:09;;;;;;;;;;;1.30;99.90;;;;;;5111733;28;19911;-75
2022/03/03 04:24:35;;;;;;;;;;;1.30;99.90;;;;;;5111219;28;19922;-75
2022/03/03 04:27:00;;;;;;;;;;;1.20;99.90;;;;;;5093146;28;19915;-75
2022/03/03 04:29:26;;;;;;;;;;;1.20;99.90;;;;;;5111018;28;19950;-75
2022/03/03 04:31:53;;;;;;;;;;;1.20;99.90;;;;;;5111267;28;19919;-75
2022/03/03 04:34:19;;;;;;;;;;;1.20;99.90;;;;;;5111159;28;19951;-75
2022/03/03 04:36:45;;;;;;;;;;;1.20;99.90;;;;;;5111346;28;20346;-76
2022/03/03 04:39:11;;;;;;;;;;;1.20;99.90;;;;;;5111192;28;19920;-76
2022/03/03 04:41:37;;;;;;;;;;;1.20;99.90;;;;;;5111433;28;19919;-74
2022/03/03 04:44:02;;;;;;;;;;;1.20;99.90;;;;;;5092363;28;19918;-74
2022/03/03 04:46:28;;;;;;;;;;;1.20;99.90;;;;;;5111038;28;19912;-75
2022/03/03 04:48:59;;;;;;;;;;;1.20;99.90;;;;;;5111084;28;20295;-75
2022/03/03 04:51:28;;;;;;;;;;;1.20;99.90;;;;;;5110908;28;20016;-75
2022/03/03 04:53:54;;;;;;;;;;;1.20;99.90;;;;;;5092929;28;19931;-75
2022/03/03 04:56:19;;;;;;;;;;;1.20;99.90;;;;;;5093199;28;19911;-74
2022/03/03 04:58:45;;;;;;;;;;;1.20;99.90;;;;;;5111418;28;19908;-74
2022/03/03 05:01:11;;;;;;;;;;;1.20;99.90;;;;;;5096039;28;19916;-75
2022/03/03 05:03:37;;;;;;;;;;;1.20;99.90;;;;;;5110832;28;20283;-75
2022/03/03 05:06:03;;;;;;;;;;;1.20;99.90;;;;;;5092810;28;19916;-75
2022/03/03 05:08:29;;;;;;;;;;;1.20;99.90;;;;;;5110973;28;19912;-75
2022/03/03 05:10:54;;;;;;;;;;;1.20;99.90;;;;;;5111112;28;20040;-74
2022/03/03 05:13:20;;;;;;;;;;;1.10;99.90;;;;;;5092335;28;20278;-75
2022/03/03 05:15:46;;;;;;;;;;;1.20;99.90;;;;;;5092542;28;19912;-75
2022/03/03 05:18:12;;;;;;;;;;;1.20;99.90;;;;;;5110920;28;19918;-74
2022/03/03 05:20:40;;;;;;;;;;;1.20;99.90;;;;;;5104368;28;20038;-75
2022/03/03 05:23:06;;;;;;;;;;;1.20;99.90;;;;;;5131127;28;19947;-74
2022/03/03 05:25:31;;;;;;;;;;;1.10;99.90;;;;;;5131270;28;19958;-75
2022/03/03 05:28:00;;;;;;;;;;;1.10;99.90;;;;;;5131143;28;20396;-74
2022/03/03 05:30:26;;;;;;;;;;;1.20;99.90;;;;;;5120430;28;20396;-75
2022/03/03 05:32:52;;;;;;;;;;;1.20;99.90;;;;;;5113805;28;19915;-74
2022/03/03 05:35:18;;;;;;;;;;;1.20;99.90;;;;;;5114407;28;20018;-75
2022/03/03 05:37:45;;;;;;;;;;;1.20;99.90;;;;;;5114538;28;20002;-75
2022/03/03 05:40:11;;;;;;;;;;;1.20;99.90;;;;;;5114257;28;19912;-75
2022/03/03 05:42:37;;;;;;;;;;;1.20;99.90;;;;;;5114143;28;20309;-75
2022/03/03 05:45:03;;;;;;;;;;;1.20;99.90;;;;;;5113896;28;19923;-75
2022/03/03 05:47:29;;;;;;;;;;;1.20;99.90;;;;;;5114252;28;20003;-74
2022/03/03 05:49:55;;;;;;;;;;;1.20;99.90;;;;;;5113830;28;19922;-75
2022/03/03 05:52:22;;;;;;;;;;;1.20;99.90;;;;;;5095707;28;20424;-74
2022/03/03 05:54:47;;;;;;;;;;;1.20;99.90;;;;;;5113834;28;19931;-75
2022/03/03 05:57:21;;;;;;;;;;;1.20;99.90;;;;;;5096101;28;20011;-75
2022/03/03 05:59:48;;;;;;;;;;;1.20;99.90;;;;;;5117526;27;19935;-74
2022/03/03 06:02:16;;;;;;;;;;;1.20;99.90;;;;;;5095509;28;19919;-75
2022/03/03 06:04:42;;;;;;;;;;;1.20;99.90;;;;;;5095095;28;20040;-74
2022/03/03 06:07:08;;;;;;;;;;;1.20;99.90;;;;;;5095741;28;19920;-74
2022/03/03 06:09:35;;;;;;;;;;;1.30;99.90;;;;;;5098621;27;20328;-75
2022/03/03 06:12:10;;;;;;;;;;;1.30;99.90;;;;;;5115492;27;20014;-75
2022/03/03 06:14:40;;;;;;;;;;;1.30;99.90;;;;;;5133946;27;19918;-74
2022/03/03 06:17:07;;;;;;;;;;;1.20;99.90;;;;;;5116049;27;20006;-74
2022/03/03 06:19:39;;;;;;;;;;;1.30;99.90;;;;;;5131296;27;20262;-75
2022/03/03 06:22:05;;;;;;;;;;;1.30;99.90;;;;;;5113454;28;19919;-75
2022/03/03 06:24:31;;;;;;;;;;;1.30;99.90;;;;;;5113315;28;20357;-75
2022/03/03 06:26:57;;;;;;;;;;;1.30;99.90;;;;;;5095911;28;20000;-76
2022/03/03 06:29:23;;;;;;;;;;;1.30;99.90;;;;;;5115252;27;20030;-75
2022/03/03 06:31:48;;;;;;;;;;;1.40;99.90;;;;;;5134186;27;19950;-75
2022/03/03 06:34:14;;;;;;;;;;;1.40;99.90;;;;;;5133352;27;19912;-75
2022/03/03 06:36:40;;;;;;;;;;;1.40;99.90;;;;;;5133960;27;19911;-75
2022/03/03 06:39:05;;;;;;;;;;;1.30;99.90;;;;;;5115257;27;19926;-75
2022/03/03 06:41:31;;;;;;;;;;;1.30;99.90;;;;;;5114571;27;20367;-75
2022/03/03 06:43:57;;;;;;;;;;;1.40;99.90;;;;;;5133299;27;19911;-75
2022/03/03 06:46:23;;;;;;;;;;;1.40;99.90;;;;;;5114588;27;19912;-75
2022/03/03 06:48:49;;;;;;;;;;;1.40;99.90;;;;;;5094629;28;19933;-75
2022/03/03 06:51:15;;;;;;;;;;;1.40;99.90;;;;;;5112426;28;20336;-75
2022/03/03 06:53:43;;;;;;;;;;;1.40;99.90;;;;;;5094103;28;19908;-75
2022/03/03 06:56:10;;;;;;;;;;;1.40;99.90;;;;;;5112992;28;19923;-74
2022/03/03 06:58:35;;;;;;;;;;;1.40;99.90;;;;;;5094445;28;20346;-75
2022/03/03 07:01:03;;;;;;;;;;;1.40;99.90;;;;;;5116512;27;19916;-75
2022/03/03 07:03:32;;;;;;;;;;;1.40;99.90;;;;;;5094074;28;20360;-75
2022/03/03 07:05:59;;;;;;;;;;;1.50;99.90;;;;;;5112742;28;19942;-75
2022/03/03 07:08:25;;;;;;;;;;;1.50;99.90;;;;;;5112563;28;20366;-75
2022/03/03 07:10:51;;;;;;;;;;;1.40;99.90;;;;;;5111854;28;20018;-75
2022/03/03 07:13:17;;;;;;;;;;;1.50;99.90;;;;;;5112184;28;20376;-74
2022/03/03 07:15:46;;;;;;;;;;;1.50;99.90;;;;;;5112546;28;19969;-75
2022/03/03 07:18:15;;;;;;;;;;;1.50;99.90;;;;;;5094456;28;20231;-75
2022/03/03 07:20:59;;;;;;;;;;;1.60;99.90;;;;;;5106264;27;19911;-75
2022/03/03 07:23:36;;;;;;;;;;;1.00;99.90;;;;;;5132878;27;19915;-75
2022/03/03 07:26:05;;;;;;;;;;;1.60;99.90;;;;;;5132940;27;19950;-76
2022/03/03 07:28:31;;;;;;;;;;;1.50;99.90;;;;;;5133240;27;20290;-76
2022/03/03 07:30:59;;;;;;;;;;;1.60;99.90;;;;;;5118050;27;19911;-75
2022/03/03 07:33:30;;;;;;;;;;;1.60;99.90;;;;;;5093703;28;19912;-75
2022/03/03 07:35:57;;;;;;;;;;;1.60;99.90;;;;;;5093779;28;19957;-75
2022/03/03 07:38:26;;;;;;;;;;;1.70;99.90;;;;;;5112303;28;20325;-76
2022/03/03 07:40:52;;;;;;;;;;;1.60;99.90;;;;;;5093395;28;19916;-74
2022/03/03 07:43:18;;;;;;;;;;;1.60;99.90;;;;;;5111877;28;19950;-75
2022/03/03 07:45:44;;;;;;;;;;;1.70;99.90;;;;;;5112044;28;19976;-75
2022/03/03 07:48:11;;;;;;;;;;;1.60;99.90;;;;;;5112361;28;19912;-75
2022/03/03 07:50:39;;;;;;;;;;;1.60;99.90;;;;;;5089916;28;19920;-75
2022/03/03 07:53:06;;;;;;;;;;;1.60;99.90;;;;;;5089760;28;19919;-75
2022/03/03 07:55:33;;;;;;;;;;;1.60;99.90;;;;;;5100638;28;19955;-75
2022/03/03 07:58:02;;;;;;;;;;;1.50;99.90;;;;;;5111709;28;19912;-76
2022/03/03 08:00:29;;;;;;;;;;;1.60;99.90;;;;;;5100919;28;19916;-76
2022/03/03 08:02:58;;;;;;;;;;;1.60;99.90;;;;;;5091065;28;19912;-76
2022/03/03 08:05:24;;;;;;;;;;;1.60;99.90;;;;;;5100086;28;19915;-75
2022/03/03 08:07:54;;;;;;;;;;;1.60;99.90;;;;;;5112214;28;19912;-74
2022/03/03 08:10:21;;;;;;;;;;;1.60;99.90;;;;;;5100356;28;20444;-75
2022/03/03 08:12:48;;;;;;;;;;;1.60;99.90;;;;;;5089475;28;20267;-75
2022/03/03 08:15:14;;;;;;;;;;;1.70;99.90;;;;;;5091279;28;19912;-74
2022/03/03 08:17:40;;;;;;;;;;;1.70;99.90;;;;;;5089801;28;19912;-75
2022/03/03 08:20:07;;;;;;;;;;;1.70;99.90;;;;;;5099051;28;19961;-75
2022/03/03 08:22:33;;;;;;;;;;;1.80;99.90;;;;;;5109878;28;19966;-75
2022/03/03 08:24:59;;;;;;;;;;;1.80;99.90;;;;;;5109900;28;19950;-75
2022/03/03 08:27:26;;;;;;;;;;;1.80;99.90;;;;;;5109967;28;19947;-75
2022/03/03 08:29:53;;;;;;;;;;;1.70;99.90;;;;;;5105654;28;19912;-75
2022/03/03 08:32:20;;;;;;;;;;;1.80;99.90;;;;;;5090514;28;19916;-75
2022/03/03 08:35:15;;;;;;;;;;;1.80;99.90;;;;;;5089162;28;20272;-76
2022/03/03 08:37:44;;;;;;;;;;;1.70;99.90;;;;;;5077765;28;20287;-74
2022/03/03 08:40:12;;;;;;;;;;;1.80;99.90;;;;;;5091110;28;19938;-75
2022/03/03 08:42:44;;;;;;;;;;;1.80;99.90;;;;;;5089200;28;20011;-75
2022/03/03 08:45:10;;;;;;;;;;;1.80;99.90;;;;;;5090947;28;20324;-73
2022/03/03 08:47:38;;;;;;;;;;;1.70;99.90;;;;;;5089134;28;19913;-73
2022/03/03 08:50:13;;;;;;;;;;;1.80;99.90;;;;;;5089304;28;19915;-72
2022/03/03 08:52:41;;;;;;;;;;;1.80;99.90;;;;;;5090069;28;20260;-73
2022/03/03 08:55:08;;;;;;;;;;;1.80;99.90;;;;;;5089034;28;19916;-73
2022/03/03 08:57:34;;;;;;;;;;;1.80;99.90;;;;;;5089199;28;19916;-72
2022/03/03 08:59:59;;;;;;;;;;;1.80;99.90;;;;;;5097423;28;19914;-73
2022/03/03 09:02:25;;;;;;;;;;;1.80;99.90;;;;;;5110664;28;20333;-73
2022/03/03 09:04:51;;;;;;;;;;;1.80;99.90;;;;;;5104628;28;19912;-72
2022/03/03 09:07:16;;;;;;;;;;;1.80;99.90;;;;;;5092802;28;19995;-73
2022/03/03 09:09:42;;;;;;;;;;;1.90;99.90;;;;;;5094241;28;20003;-72
2022/03/03 09:12:08;;;;;;;;;;;1.80;99.90;;;;;;5094115;28;19926;-74
2022/03/03 09:14:34;;;;;;;;;;;1.80;99.90;;;;;;5093952;28;19919;-73
2022/03/03 09:17:00;;;;;;;;;;;1.80;99.90;;;;;;5092938;28;19916;-74
2022/03/03 09:19:26;;;;;;;;;;;1.90;99.90;;;;;;5094061;28;19912;-72
2022/03/03 09:21:52;;;;;;;;;;;1.90;99.90;;;;;;5094193;28;19920;-73
2022/03/03 09:24:18;;;;;;;;;;;0.70;99.90;;;;;;5093680;28;19924;-74
2022/03/03 09:26:43;;;;;;;;;;;1.90;99.90;;;;;;5092790;28;19969;-72
2022/03/03 09:29:09;;;;;;;;;;;2.00;99.90;;;;;;5093918;28;19916;-73
2022/03/03 09:31:35;;;;;;;;;;;2.00;99.90;;;;;;5112724;28;20391;-72
2022/03/03 09:34:01;;;;;;;;;;;2.10;99.90;;;;;;5113745;28;19908;-72
2022/03/03 09:36:27;;;;;;;;;;;2.10;99.90;;;;;;5095165;28;19938;-73
2022/03/03 09:38:52;;;;;;;;;;;2.00;99.90;;;;;;5092270;28;19987;-72
2022/03/03 09:41:18;;;;;;;;;;;2.00;99.90;;;;;;5092333;28;20396;-74
2022/03/03 09:43:44;;;;;;;;;;;2.00;99.90;;;;;;5092000;28;19918;-73
2022/03/03 09:46:10;;;;;;;;;;;2.10;99.90;;;;;;5094018;28;19908;-73
2022/03/03 09:48:36;;;;;;;;;;;2.10;99.90;;;;;;5093705;28;19920;-73
2022/03/03 09:51:02;;;;;;;;;;;2.10;99.90;;;;;;5107724;28;19924;-73
2022/03/03 09:53:27;;;;;;;;;;;2.10;99.90;;;;;;5112656;28;19944;-74
2022/03/03 09:55:53;;;;;;;;;;;2.00;99.90;;;;;;5114002;28;19911;-73
2022/03/03 09:58:19;;;;;;;;;;;2.00;99.90;;;;;;5113884;28;20383;-73
2022/03/03 10:00:46;;;;;;;;;;;2.00;99.90;;;;;;5095051;28;19935;-73
2022/03/03 10:03:14;;;;;;;;;;;2.00;99.90;;;;;;5093062;28;19919;-72
2022/03/03 10:05:50;;;;;;;;;;;2.10;99.90;;;;;;5093176;28;19941;-73
2022/03/03 10:08:20;;;;;;;;;;;2.10;99.90;;;;;;5092906;28;19912;-74
2022/03/03 10:10:48;;;;;;;;;;;2.10;99.90;;;;;;5091787;28;19919;-73
2022/03/03 10:13:17;;;;;;;;;;;2.10;99.90;;;;;;5091578;28;19920;-73
2022/03/03 10:15:44;;;;;;;;;;;2.10;99.90;;;;;;5091479;28;19912;-73
2022/03/03 10:18:11;;;;;;;;;;;2.20;99.90;;;;;;5090809;28;19920;-72
2022/03/03 10:20:45;;;;;;;;;;;2.20;99.90;;;;;;5091447;28;19989;-73
2022/03/03 10:23:11;;;;;;;;;;;2.20;99.90;;;;;;5091297;28;19916;-74
2022/03/03 10:25:38;;;;;;;;;;;2.20;99.90;;;;;;5092861;28;19912;-73
2022/03/03 10:28:06;;;;;;;;;;;2.20;99.90;;;;;;5091417;28;19912;-73
2022/03/03 10:30:46;;;;;;;;;;;2.20;99.90;;;;;;5092592;28;19916;-73
2022/03/03 10:33:16;;;;;;;;;;;2.30;99.90;;;;;;5092690;28;19916;-74
2022/03/03 10:35:41;;;;;;;;;;;2.40;99.90;;;;;;5090876;28;19916;-74
2022/03/03 10:38:07;;;;;;;;;;;2.40;99.90;;;;;;5092704;28;20367;-74
2022/03/03 10:40:36;;;;;;;;;;;2.40;99.90;;;;;;5092615;28;20390;-74
2022/03/03 10:43:02;;;;;;;;;;;2.30;99.90;;;;;;5092377;28;19958;-73
2022/03/03 10:45:27;;;;;;;;;;;2.40;99.90;;;;;;5092322;28;19923;-73
2022/03/03 10:48:03;;;;;;;;;;;2.40;99.90;;;;;;5092403;28;19913;-74
2022/03/03 10:50:48;;;;;;;;;;;2.40;99.90;;;;;;5094764;28;19912;-74
2022/03/03 10:53:18;;;;;;;;;;;2.40;99.90;;;;;;5112615;28;19916;-74
2022/03/03 10:56:04;;;;;;;;;;;2.40;99.90;;;;;;5112706;28;20351;-73
2022/03/03 10:58:48;;;;;;;;;;;2.50;99.90;;;;;;5112663;28;19911;-73
2022/03/03 11:01:15;;;;;;;;;;;2.50;99.90;;;;;;5129856;27;19915;-73
2022/03/03 11:03:41;;;;;;;;;;;2.50;99.90;;;;;;5132853;27;19922;-73
2022/03/03 11:06:07;;;;;;;;;;;2.50;99.90;;;;;;5116194;27;19919;-73
2022/03/03 11:08:34;;;;;;;;;;;2.50;99.90;;;;;;5112488;28;19943;-74
2022/03/03 11:11:01;;;;;;;;;;;2.50;99.90;;;;;;5112506;28;19912;-72
2022/03/03 11:13:27;;;;;;;;;;;2.50;99.90;;;;;;5112152;28;19911;-73
2022/03/03 11:15:52;;;;;;;;;;;2.50;99.90;;;;;;5107930;27;19964;-73
2022/03/03 11:18:18;;;;;;;;;;;2.50;99.90;;;;;;5132499;27;19921;-72
2022/03/03 11:20:47;;;;;;;;;;;2.50;99.90;;;;;;5132824;27;19947;-73
2022/03/03 11:23:13;;;;;;;;;;;2.50;99.90;;;;;;5132462;27;20317;-73
2022/03/03 11:25:39;;;;;;;;;;;2.50;99.90;;;;;;5101413;28;19912;-75
2022/03/03 11:28:05;;;;;;;;;;;2.50;99.90;;;;;;5112000;28;19916;-74
2022/03/03 11:30:32;;;;;;;;;;;2.50;99.90;;;;;;5093552;28;19916;-73
2022/03/03 11:33:16;;;;;;;;;;;2.50;99.90;;;;;;5093525;28;19919;-75
2022/03/03 11:35:50;;;;;;;;;;;2.50;99.90;;;;;;5093560;28;20387;-73
2022/03/03 11:38:19;;;;;;;;;;;2.60;99.90;;;;;;5093999;28;19939;-75
2022/03/03 11:40:52;;;;;;;;;;;2.60;99.90;;;;;;5093624;28;20391;-73
2022/03/03 11:43:18;;;;;;;;;;;2.50;99.90;;;;;;5111617;28;19957;-75
2022/03/03 11:45:50;;;;;;;;;;;2.40;99.90;;;;;;5111568;28;20334;-72
2022/03/03 11:48:19;;;;;;;;;;;2.40;99.90;;;;;;5111665;28;19915;-73
2022/03/03 11:50:45;;;;;;;;;;;2.30;99.90;;;;;;5093207;28;19942;-73
2022/03/03 11:53:10;;;;;;;;;;;2.40;99.90;;;;;;5111769;28;19912;-73
2022/03/03 11:55:37;;;;;;;;;;;2.30;99.90;;;;;;5092838;28;20406;-73
2022/03/03 11:58:32;;;;;;;;;;;2.40;99.90;;;;;;5111722;28;19918;-74
2022/03/03 12:01:03;;;;;;;;;;;2.40;99.90;;;;;;5093365;28;19951;-74
2022/03/03 12:03:29;;;;;;;;;;;2.40;99.90;;;;;;5111635;28;20397;-74
2022/03/03 12:06:14;;;;;;;;;;;2.40;99.90;;;;;;5126286;27;19915;-73
2022/03/03 12:08:41;;;;;;;;;;;2.40;99.90;;;;;;5113722;27;19954;-74
2022/03/03 12:11:08;;;;;;;;;;;2.40;99.90;;;;;;5134636;27;19923;-73
2022/03/03 12:13:37;;;;;;;;;;;2.40;99.90;;;;;;5131997;27;19915;-73
2022/03/03 12:16:12;;;;;;;;;;;2.40;99.90;;;;;;5132094;27;19912;-74
2022/03/03 12:18:38;;;;;;;;;;;2.40;99.90;;;;;;5113318;28;19912;-73
2022/03/03 12:21:36;;;;;;;;;;;2.40;99.90;;;;;;5132017;28;19911;-74
2022/03/03 12:24:14;;;;;;;;;;;2.40;99.90;;;;;;5102108;27;19922;-73
2022/03/03 12:29:27;;;;;;;;;;;2.40;99.90;;;;;;5112104;28;20002;-74
2022/03/03 12:31:52;;;;;;;;;;;2.40;99.90;;;;;;5131568;28;19912;-72
2022/03/03 12:34:20;;;;;;;;;;;2.50;99.90;;;;;;5130290;28;19916;-73
2022/03/03 12:36:45;;;;;;;;;;;2.50;99.90;;;;;;5092552;28;19916;-73
2022/03/03 12:39:12;;;;;;;;;;;2.60;99.90;;;;;;5092707;28;19949;-74
2022/03/03 12:41:40;;;;;;;;;;;2.60;99.90;;;;;;5114387;28;20402;-72
2022/03/03 12:44:07;;;;;;;;;;;2.70;99.90;;;;;;5115082;28;19911;-73
2022/03/03 12:46:34;;;;;;;;;;;2.70;99.90;;;;;;5114835;28;19912;-72
2022/03/03 12:49:02;;;;;;;;;;;2.70;99.90;;;;;;5096869;28;19908;-72
2022/03/03 12:51:29;;;;;;;;;;;2.70;99.90;;;;;;5114872;28;20084;-73
2022/03/03 12:53:55;;;;;;;;;;;2.70;99.90;;;;;;5114934;28;19908;-73
2022/03/03 12:56:22;;;;;;;;;;;2.60;99.90;;;;;;5096345;28;19920;-73
2022/03/03 12:58:48;;;;;;;;;;;2.60;99.90;;;;;;5114649;28;19918;-74
2022/03/03 13:01:18;;;;;;;;;;;2.60;99.90;;;;;;5132168;27;19911;-73
2022/03/03 13:03:44;;;;;;;;;;;2.50;99.90;;;;;;5151204;27;19915;-72
2022/03/03 13:06:10;;;;;;;;;;;2.60;99.90;;;;;;5118973;27;19919;-73
2022/03/03 13:08:36;;;;;;;;;;;2.60;99.90;;;;;;5096281;28;19912;-74
2022/03/03 13:11:02;;;;;;;;;;;2.60;99.90;;;;;;5114320;28;19912;-73
2022/03/03 13:13:32;;;;;;;;;;;2.50;99.90;;;;;;5114653;28;19945;-74
2022/03/03 13:16:10;;;;;;;;;;;2.50;99.90;;;;;;5114975;28;19915;-73
2022/03/03 13:18:35;;;;;;;;;;;2.60;99.90;;;;;;5096089;28;19912;-74
2022/03/03 13:21:05;;;;;;;;;;;2.60;99.90;;;;;;5095987;28;20010;-73
2022/03/03 13:23:31;;;;;;;;;;;2.50;99.90;;;;;;5114547;28;20329;-73
2022/03/03 13:26:02;;;;;;;;;;;2.60;99.90;;;;;;5096040;28;19912;-73
2022/03/03 13:28:28;;;;;;;;;;;2.60;99.90;;;;;;5114635;28;20016;-74
2022/03/03 13:30:55;;;;;;;;;;;2.50;99.90;;;;;;5114576;28;20010;-73
2022/03/03 13:33:40;;;;;;;;;;;2.50;99.90;;;;;;5114319;28;19938;-74
2022/03/03 13:36:16;;;;;;;;;;;2.50;99.90;;;;;;5114672;28;19950;-73
2022/03/03 13:38:42;;;;;;;;;;;2.60;99.90;;;;;;5113963;28;19912;-72
2022/03/03 13:41:21;;;;;;;;;;;2.50;99.90;;;;;;5095703;28;19912;-73
2022/03/03 13:43:47;;;;;;;;;;;2.50;99.90;;;;;;5113924;28;20367;-72
2022/03/03 13:46:29;;;;;;;;;;;2.50;99.90;;;;;;5131433;27;20381;-74
2022/03/03 13:48:55;;;;;;;;;;;2.50;99.90;;;;;;5134496;27;20290;-75
2022/03/03 13:51:21;;;;;;;;;;;2.40;99.90;;;;;;5114773;28;20014;-74
2022/03/03 13:54:00;;;;;;;;;;;2.30;99.90;;;;;;5149573;27;19915;-74
2022/03/03 13:56:30;;;;;;;;;;;2.30;99.90;;;;;;5115099;27;19915;-73
2022/03/03 13:59:09;;;;;;;;;;;2.40;99.90;;;;;;5097100;27;19919;-73
2022/03/03 14:01:36;;;;;;;;;;;2.40;99.90;;;;;;5095320;28;19912;-74
2022/03/03 14:04:16;;;;;;;;;;;2.20;99.90;;;;;;5113532;28;19912;-73
2022/03/03 14:06:45;;;;;;;;;;;2.20;99.90;;;;;;5113551;28;20289;-73
2022/03/03 14:09:23;;;;;;;;;;;2.20;99.90;;;;;;5113694;28;19915;-73
2022/03/03 14:11:49;;;;;;;;;;;2.10;99.90;;;;;;5113565;28;19954;-74
2022/03/03 14:14:19;;;;;;;;;;;2.10;99.90;;;;;;5095452;27;20332;-73
2022/03/03 14:16:44;;;;;;;;;;;2.20;99.90;;;;;;5133906;27;19911;-73
2022/03/03 14:19:11;;;;;;;;;;;2.20;99.90;;;;;;5115303;27;19917;-73
2022/03/03 14:21:39;;;;;;;;;;;2.10;99.90;;;;;;5113505;28;19916;-73
2022/03/03 14:24:05;;;;;;;;;;;2.10;99.90;;;;;;5113192;28;19959;-72
2022/03/03 14:26:31;;;;;;;;;;;2.10;99.90;;;;;;5114244;27;19916;-73
2022/03/03 14:28:57;;;;;;;;;;;2.10;99.90;;;;;;5133412;27;19965;-73
2022/03/03 14:31:23;;;;;;;;;;;2.10;99.90;;;;;;5115073;27;20002;-74
2022/03/03 14:33:49;;;;;;;;;;;2.10;99.90;;;;;;5133319;27;20433;-74
2022/03/03 14:36:16;;;;;;;;;;;2.10;99.90;;;;;;5134988;27;19916;-72
2022/03/03 14:38:42;;;;;;;;;;;2.10;99.90;;;;;;5133559;27;19907;-73